sensor_id;sensor_type;location;lat;lon;timestamp;temperature;humidity
64654;DHT22;51065;48.884;12.598;2024-01-10T00:00:22;-6.40;99.90
64654;DHT22;51065;48.884;12.598;2024-01-10T00:02:47;-6.40;99.90
64654;DHT22;51065;48.884;12.598;2024-01-10T00:05:13;-6.50;99.90
64654;DHT22;51065;48.884;12.598;2024-01-10T00:07:39;-6.40;99.90
64654;DHT22;51065;48.884;12.598;2024-01-10T00:10:05;-6.60;99.90
64654;DHT22;51065;48.884;12.598;2024-01-10T00:12:30;-6.40;1.00
64654;DHT22;51065;48.884;12.598;2024-01-10T00:15:00;-6.50;1.00
64654;DHT22;51065;48.884;12.598;2024-01-10T00:17:26;-6.60;1.00
64654;DHT22;51065;48.884;12.598;2024-01-10T00:19:52;-6.70;94.60
64654;DHT22;51065;48.884;12.598;2024-01-10T00:22:17;-6.80;99.90
64654;DHT22;51065;48.884;12.598;2024-01-10T00:24:43;-6.80;99.90
64654;DHT22;51065;48.884;12.598;2024-01-10T00:27:08;-6.70;1.00
64654;DHT22;51065;48.884;12.598;2024-01-10T00:29:35;-6.60;1.00
64654;DHT22;51065;48.884;12.598;2024-01-10T00:32:00;-6.60;1.00
64654;DHT22;51065;48.884;12.598;2024-01-10T00:34:26;-6.70;1.00
64654;DHT22;51065;48.884;12.598;2024-01-10T00:36:52;-6.80;1.00
64654;DHT22;51065;48.884;12.598;2024-01-10T00:39:17;-6.80;1.00
64654;DHT22;51065;48.884;12.598;2024-01-10T00:41:43;-7.00;99.90
64654;DHT22;51065;48.884;12.598;2024-01-10T00:44:08;-6.90;62.60
64654;DHT22;51065;48.884;12.598;2024-01-10T00:46:34;-6.80;99.90
64654;DHT22;51065;48.884;12.598;2024-01-10T00:48:59;-7.00;1.00
64654;DHT22;51065;48.884;12.598;2024-01-10T00:51:25;-6.90;99.90
64654;DHT22;51065;48.884;12.598;2024-01-10T00:53:51;-7.00;1.00
64654;DHT22;51065;48.884;12.598;2024-01-10T00:56:16;-6.80;99.90
64654;DHT22;51065;48.884;12.598;2024-01-10T00:58:42;-6.90;7.60
64654;DHT22;51065;48.884;12.598;2024-01-10T01:01:07;-7.20;99.90
64654;DHT22;51065;48.884;12.598;2024-01-10T01:03:33;-7.30;8.40
64654;DHT22;51065;48.884;12.598;2024-01-10T01:05:59;-7.30;99.90
64654;DHT22;51065;48.884;12.598;2024-01-10T01:08:24;-7.20;99.90
64654;DHT22;51065;48.884;12.598;2024-01-10T01:10:50;-7.20;1.00
64654;DHT22;51065;48.884;12.598;2024-01-10T01:13:15;-7.20;1.00
64654;DHT22;51065;48.884;12.598;2024-01-10T01:15:41;-7.10;93.80
64654;DHT22;51065;48.884;12.598;2024-01-10T01:18:07;-7.10;2.00
64654;DHT22;51065;48.884;12.598;2024-01-10T01:20:35;-7.10;1.00
64654;DHT22;51065;48.884;12.598;2024-01-10T01:23:00;-7.30;1.00
64654;DHT22;51065;48.884;12.598;2024-01-10T01:25:26;-7.30;99.90
64654;DHT22;51065;48.884;12.598;2024-01-10T01:27:51;-7.30;1.00
64654;DHT22;51065;48.884;12.598;2024-01-10T01:30:17;-6.90;99.90
64654;DHT22;51065;48.884;12.598;2024-01-10T01:32:43;-7.10;1.00
64654;DHT22;51065;48.884;12.598;2024-01-10T01:35:08;-7.10;1.00
64654;DHT22;51065;48.884;12.598;2024-01-10T01:37:34;-7.10;99.90
64654;DHT22;51065;48.884;12.598;2024-01-10T01:39:59;-7.20;99.90
64654;DHT22;51065;48.884;12.598;2024-01-10T01:42:25;-7.20;99.90
64654;DHT22;51065;48.884;12.598;2024-01-10T01:44:51;-7.30;99.90
64654;DHT22;51065;48.884;12.598;2024-01-10T01:47:16;-7.40;99.90
64654;DHT22;51065;48.884;12.598;2024-01-10T01:49:42;-7.40;99.90
64654;DHT22;51065;48.884;12.598;2024-01-10T01:52:09;-7.40;1.00
64654;DHT22;51065;48.884;12.598;2024-01-10T01:54:35;-7.40;1.00
64654;DHT22;51065;48.884;12.598;2024-01-10T01:57:00;-7.60;99.90
64654;DHT22;51065;48.884;12.598;2024-01-10T01:59:26;-7.60;1.00
64654;DHT22;51065;48.884;12.598;2024-01-10T02:01:54;-7.70;1.00
64654;DHT22;51065;48.884;12.598;2024-01-10T02:04:20;-7.70;1.00
64654;DHT22;51065;48.884;12.598;2024-01-10T02:06:49;-7.60;99.90
64654;DHT22;51065;48.884;12.598;2024-01-10T02:09:14;-7.60;99.90
64654;DHT22;51065;48.884;12.598;2024-01-10T02:11:40;-7.70;99.90
64654;DHT22;51065;48.884;12.598;2024-01-10T02:14:05;-7.70;99.90
64654;DHT22;51065;48.884;12.598;2024-01-10T02:16:31;-7.70;99.90
64654;DHT22;51065;48.884;12.598;2024-01-10T02:18:57;-7.60;99.90
64654;DHT22;51065;48.884;12.598;2024-01-10T02:21:23;-7.60;99.90
64654;DHT22;51065;48.884;12.598;2024-01-10T02:23:48;-7.60;99.90
64654;DHT22;51065;48.884;12.598;2024-01-10T02:26:15;-7.50;99.90
64654;DHT22;51065;48.884;12.598;2024-01-10T02:28:41;-7.50;99.90
64654;DHT22;51065;48.884;12.598;2024-01-10T02:31:06;-7.30;99.90
64654;DHT22;51065;48.884;12.598;2024-01-10T02:33:32;-7.30;99.90
64654;DHT22;51065;48.884;12.598;2024-01-10T02:35:58;-7.20;99.90
64654;DHT22;51065;48.884;12.598;2024-01-10T02:38:24;-7.30;91.90
64654;DHT22;51065;48.884;12.598;2024-01-10T02:40:49;-7.30;99.90
64654;DHT22;51065;48.884;12.598;2024-01-10T02:43:15;-7.30;99.90
64654;DHT22;51065;48.884;12.598;2024-01-10T02:45:41;-7.30;99.90
64654;DHT22;51065;48.884;12.598;2024-01-10T02:48:07;-7.30;1.00
64654;DHT22;51065;48.884;12.598;2024-01-10T02:50:32;-7.30;18.00
64654;DHT22;51065;48.884;12.598;2024-01-10T02:52:58;-7.30;1.00
64654;DHT22;51065;48.884;12.598;2024-01-10T02:55:23;-7.30;99.90
64654;DHT22;51065;48.884;12.598;2024-01-10T02:57:49;-7.40;87.10
64654;DHT22;51065;48.884;12.598;2024-01-10T03:00:15;-7.50;99.90
64654;DHT22;51065;48.884;12.598;2024-01-10T03:02:40;-7.50;99.90
64654;DHT22;51065;48.884;12.598;2024-01-10T03:05:06;-7.50;99.90
64654;DHT22;51065;48.884;12.598;2024-01-10T03:07:32;-7.50;99.90
64654;DHT22;51065;48.884;12.598;2024-01-10T03:09:57;-7.40;99.90
64654;DHT22;51065;48.884;12.598;2024-01-10T03:12:23;-7.40;1.00
64654;DHT22;51065;48.884;12.598;2024-01-10T03:14:49;-7.50;1.00
64654;DHT22;51065;48.884;12.598;2024-01-10T03:17:14;-7.40;1.00
64654;DHT22;51065;48.884;12.598;2024-01-10T03:19:40;-7.30;1.00
64654;DHT22;51065;48.884;12.598;2024-01-10T03:22:10;-7.30;99.90
64654;DHT22;51065;48.884;12.598;2024-01-10T03:24:36;-7.40;99.90
64654;DHT22;51065;48.884;12.598;2024-01-10T03:27:03;-7.40;99.90
64654;DHT22;51065;48.884;12.598;2024-01-10T03:29:28;-7.40;99.90
64654;DHT22;51065;48.884;12.598;2024-01-10T03:31:54;-7.40;99.90
64654;DHT22;51065;48.884;12.598;2024-01-10T03:34:19;-7.40;99.90
64654;DHT22;51065;48.884;12.598;2024-01-10T03:36:45;-7.60;99.90
64654;DHT22;51065;48.884;12.598;2024-01-10T03:39:11;-7.60;99.90
64654;DHT22;51065;48.884;12.598;2024-01-10T03:41:36;-7.60;99.90
64654;DHT22;51065;48.884;12.598;2024-01-10T03:44:02;-7.50;99.90
64654;DHT22;51065;48.884;12.598;2024-01-10T03:46:27;-7.40;1.00
64654;DHT22;51065;48.884;12.598;2024-01-10T03:48:53;-7.50;99.90
64654;DHT22;51065;48.884;12.598;2024-01-10T03:51:19;-7.40;1.00
64654;DHT22;51065;48.884;12.598;2024-01-10T03:53:45;-7.40;99.90
64654;DHT22;51065;48.884;12.598;2024-01-10T03:56:17;-7.50;99.90
64654;DHT22;51065;48.884;12.598;2024-01-10T03:58:42;-7.40;99.90
64654;DHT22;51065;48.884;12.598;2024-01-10T04:01:08;-7.40;99.90
64654;DHT22;51065;48.884;12.598;2024-01-10T04:03:34;-7.30;99.90
64654;DHT22;51065;48.884;12.598;2024-01-10T04:06:01;-7.30;38.00
64654;DHT22;51065;48.884;12.598;2024-01-10T04:08:26;-7.20;1.00
64654;DHT22;51065;48.884;12.598;2024-01-10T04:10:52;-7.30;99.90
64654;DHT22;51065;48.884;12.598;2024-01-10T04:13:18;-7.20;99.90
64654;DHT22;51065;48.884;12.598;2024-01-10T04:15:43;-7.30;99.90
64654;DHT22;51065;48.884;12.598;2024-01-10T04:18:09;-7.40;99.90
64654;DHT22;51065;48.884;12.598;2024-01-10T04:20:34;-7.40;99.90
64654;DHT22;51065;48.884;12.598;2024-01-10T04:23:00;-7.40;99.90
64654;DHT22;51065;48.884;12.598;2024-01-10T04:25:25;-7.40;99.90
64654;DHT22;51065;48.884;12.598;2024-01-10T04:27:51;-7.40;99.90
64654;DHT22;51065;48.884;12.598;2024-01-10T04:30:17;-7.40;99.90
64654;DHT22;51065;48.884;12.598;2024-01-10T04:32:42;-7.40;99.90
64654;DHT22;51065;48.884;12.598;2024-01-10T04:35:08;-7.50;99.90
64654;DHT22;51065;48.884;12.598;2024-01-10T04:37:34;-7.50;99.90
64654;DHT22;51065;48.884;12.598;2024-01-10T04:39:59;-7.60;99.90
64654;DHT22;51065;48.884;12.598;2024-01-10T04:42:25;-7.70;99.90
64654;DHT22;51065;48.884;12.598;2024-01-10T04:44:50;-7.90;99.90
64654;DHT22;51065;48.884;12.598;2024-01-10T04:47:16;-7.90;99.90
64654;DHT22;51065;48.884;12.598;2024-01-10T04:49:41;-7.90;1.00
64654;DHT22;51065;48.884;12.598;2024-01-10T04:52:07;-7.70;99.90
64654;DHT22;51065;48.884;12.598;2024-01-10T04:54:33;-7.70;99.90
64654;DHT22;51065;48.884;12.598;2024-01-10T04:56:59;-7.80;55.90
64654;DHT22;51065;48.884;12.598;2024-01-10T04:59:24;-8.00;99.90
64654;DHT22;51065;48.884;12.598;2024-01-10T05:01:50;-8.00;56.60
64654;DHT22;51065;48.884;12.598;2024-01-10T05:04:19;-8.10;1.00
64654;DHT22;51065;48.884;12.598;2024-01-10T05:06:44;-8.20;1.00
64654;DHT22;51065;48.884;12.598;2024-01-10T05:09:10;-8.40;99.90
64654;DHT22;51065;48.884;12.598;2024-01-10T05:11:36;-8.40;99.90
64654;DHT22;51065;48.884;12.598;2024-01-10T05:14:02;-8.50;99.90
64654;DHT22;51065;48.884;12.598;2024-01-10T05:16:28;-8.50;99.90
64654;DHT22;51065;48.884;12.598;2024-01-10T05:18:54;-8.50;25.20
64654;DHT22;51065;48.884;12.598;2024-01-10T05:21:19;-8.50;99.90
64654;DHT22;51065;48.884;12.598;2024-01-10T05:23:46;-8.50;99.90
64654;DHT22;51065;48.884;12.598;2024-01-10T05:26:11;-8.50;99.90
64654;DHT22;51065;48.884;12.598;2024-01-10T05:28:37;-8.40;99.90
64654;DHT22;51065;48.884;12.598;2024-01-10T05:31:03;-8.50;99.90
64654;DHT22;51065;48.884;12.598;2024-01-10T05:33:28;-8.60;1.00
64654;DHT22;51065;48.884;12.598;2024-01-10T05:35:54;-8.50;99.90
64654;DHT22;51065;48.884;12.598;2024-01-10T05:38:19;-8.40;1.00
64654;DHT22;51065;48.884;12.598;2024-01-10T05:40:45;-8.30;1.00
64654;DHT22;51065;48.884;12.598;2024-01-10T05:43:10;-8.10;53.00
64654;DHT22;51065;48.884;12.598;2024-01-10T05:45:36;-8.00;95.00
64654;DHT22;51065;48.884;12.598;2024-01-10T05:48:02;-8.00;99.90
64654;DHT22;51065;48.884;12.598;2024-01-10T05:50:28;-7.90;98.00
64654;DHT22;51065;48.884;12.598;2024-01-10T05:52:53;-7.70;50.80
64654;DHT22;51065;48.884;12.598;2024-01-10T05:55:19;-7.60;1.00
64654;DHT22;51065;48.884;12.598;2024-01-10T05:57:45;-7.50;99.90
64654;DHT22;51065;48.884;12.598;2024-01-10T06:00:11;-7.40;1.00
64654;DHT22;51065;48.884;12.598;2024-01-10T06:02:39;-7.30;49.80
64654;DHT22;51065;48.884;12.598;2024-01-10T06:05:08;-7.20;99.90
64654;DHT22;51065;48.884;12.598;2024-01-10T06:07:38;-7.10;27.30
64654;DHT22;51065;48.884;12.598;2024-01-10T06:10:04;-7.00;99.90
64654;DHT22;51065;48.884;12.598;2024-01-10T06:12:30;-7.00;99.90
64654;DHT22;51065;48.884;12.598;2024-01-10T06:14:56;-6.90;99.90
64654;DHT22;51065;48.884;12.598;2024-01-10T06:17:22;-7.00;99.90
64654;DHT22;51065;48.884;12.598;2024-01-10T06:19:48;-7.00;99.90
64654;DHT22;51065;48.884;12.598;2024-01-10T06:22:14;-7.00;99.90
64654;DHT22;51065;48.884;12.598;2024-01-10T06:24:40;-6.80;1.00
64654;DHT22;51065;48.884;12.598;2024-01-10T06:27:06;-6.90;1.00
64654;DHT22;51065;48.884;12.598;2024-01-10T06:29:32;-6.90;1.00
64654;DHT22;51065;48.884;12.598;2024-01-10T06:31:58;-6.90;1.00
64654;DHT22;51065;48.884;12.598;2024-01-10T06:34:24;-6.90;1.00
64654;DHT22;51065;48.884;12.598;2024-01-10T06:36:50;-6.90;1.00
64654;DHT22;51065;48.884;12.598;2024-01-10T06:39:15;-6.80;1.00
64654;DHT22;51065;48.884;12.598;2024-01-10T06:41:42;-6.80;1.00
64654;DHT22;51065;48.884;12.598;2024-01-10T06:44:08;-6.80;1.00
64654;DHT22;51065;48.884;12.598;2024-01-10T06:46:34;-6.90;1.00
64654;DHT22;51065;48.884;12.598;2024-01-10T06:48:59;-6.90;1.00
64654;DHT22;51065;48.884;12.598;2024-01-10T06:51:25;-6.80;1.00
64654;DHT22;51065;48.884;12.598;2024-01-10T06:53:52;-6.80;1.00
64654;DHT22;51065;48.884;12.598;2024-01-10T06:56:18;-6.90;1.00
64654;DHT22;51065;48.884;12.598;2024-01-10T06:58:43;-7.00;1.00
64654;DHT22;51065;48.884;12.598;2024-01-10T07:01:13;-6.90;1.00
64654;DHT22;51065;48.884;12.598;2024-01-10T07:03:39;-6.90;8.30
64654;DHT22;51065;48.884;12.598;2024-01-10T07:06:05;-7.00;1.00
64654;DHT22;51065;48.884;12.598;2024-01-10T07:08:31;-7.00;9.10
64654;DHT22;51065;48.884;12.598;2024-01-10T07:10:57;-6.90;1.00
64654;DHT22;51065;48.884;12.598;2024-01-10T07:13:25;-6.80;1.00
64654;DHT22;51065;48.884;12.598;2024-01-10T07:15:51;-6.80;1.00
64654;DHT22;51065;48.884;12.598;2024-01-10T07:18:17;-6.80;1.00
64654;DHT22;51065;48.884;12.598;2024-01-10T07:20:43;-6.80;1.00
64654;DHT22;51065;48.884;12.598;2024-01-10T07:23:08;-6.70;1.00
64654;DHT22;51065;48.884;12.598;2024-01-10T07:25:43;-6.60;1.00
64654;DHT22;51065;48.884;12.598;2024-01-10T07:28:08;-6.60;99.90
64654;DHT22;51065;48.884;12.598;2024-01-10T07:30:34;-6.60;99.90
64654;DHT22;51065;48.884;12.598;2024-01-10T07:32:59;-6.60;99.90
64654;DHT22;51065;48.884;12.598;2024-01-10T07:35:25;-6.60;1.00
64654;DHT22;51065;48.884;12.598;2024-01-10T07:37:51;-6.60;1.00
64654;DHT22;51065;48.884;12.598;2024-01-10T07:40:16;-6.60;1.00
64654;DHT22;51065;48.884;12.598;2024-01-10T07:42:42;-6.60;1.00
64654;DHT22;51065;48.884;12.598;2024-01-10T07:45:08;-6.60;1.00
64654;DHT22;51065;48.884;12.598;2024-01-10T07:47:35;-6.60;1.00
64654;DHT22;51065;48.884;12.598;2024-01-10T07:50:07;-6.50;1.00
64654;DHT22;51065;48.884;12.598;2024-01-10T07:52:34;-6.30;99.90
64654;DHT22;51065;48.884;12.598;2024-01-10T07:55:00;-6.00;99.90
64654;DHT22;51065;48.884;12.598;2024-01-10T07:57:26;-5.70;1.00
64654;DHT22;51065;48.884;12.598;2024-01-10T07:59:55;-5.50;1.00
64654;DHT22;51065;48.884;12.598;2024-01-10T08:02:24;-5.50;1.00
64654;DHT22;51065;48.884;12.598;2024-01-10T08:04:49;-5.40;99.90
64654;DHT22;51065;48.884;12.598;2024-01-10T08:07:15;-5.30;99.90
64654;DHT22;51065;48.884;12.598;2024-01-10T08:09:40;-5.20;99.90
64654;DHT22;51065;48.884;12.598;2024-01-10T08:12:06;-4.80;99.90
64654;DHT22;51065;48.884;12.598;2024-01-10T08:14:32;-4.40;99.90
64654;DHT22;51065;48.884;12.598;2024-01-10T08:16:58;-3.90;1.00
64654;DHT22;51065;48.884;12.598;2024-01-10T08:19:24;-3.50;99.90
64654;DHT22;51065;48.884;12.598;2024-01-10T08:21:54;-3.60;1.00
64654;DHT22;51065;48.884;12.598;2024-01-10T08:24:20;-3.70;1.00
64654;DHT22;51065;48.884;12.598;2024-01-10T08:26:47;-3.30;99.90
64654;DHT22;51065;48.884;12.598;2024-01-10T08:29:14;-3.20;1.00
64654;DHT22;51065;48.884;12.598;2024-01-10T08:31:40;-2.90;1.00
64654;DHT22;51065;48.884;12.598;2024-01-10T08:34:06;-2.80;1.00
64654;DHT22;51065;48.884;12.598;2024-01-10T08:36:34;-2.80;99.90
64654;DHT22;51065;48.884;12.598;2024-01-10T08:39:00;-3.00;99.90
64654;DHT22;51065;48.884;12.598;2024-01-10T08:41:26;-3.10;99.90
64654;DHT22;51065;48.884;12.598;2024-01-10T08:43:51;-2.80;1.00
64654;DHT22;51065;48.884;12.598;2024-01-10T08:46:16;-2.70;99.90
64654;DHT22;51065;48.884;12.598;2024-01-10T08:48:43;-2.70;99.90
64654;DHT22;51065;48.884;12.598;2024-01-10T08:51:08;-2.50;99.90
64654;DHT22;51065;48.884;12.598;2024-01-10T08:53:35;-2.30;99.90
64654;DHT22;51065;48.884;12.598;2024-01-10T08:56:00;-2.10;99.90
64654;DHT22;51065;48.884;12.598;2024-01-10T08:58:26;-2.30;99.90
64654;DHT22;51065;48.884;12.598;2024-01-10T09:00:51;-2.20;99.90
64654;DHT22;51065;48.884;12.598;2024-01-10T09:03:17;-1.90;99.90
64654;DHT22;51065;48.884;12.598;2024-01-10T09:05:42;-1.80;99.90
64654;DHT22;51065;48.884;12.598;2024-01-10T09:08:08;-1.70;99.90
64654;DHT22;51065;48.884;12.598;2024-01-10T09:10:33;-1.90;33.80
64654;DHT22;51065;48.884;12.598;2024-01-10T09:12:59;-1.70;89.70
64654;DHT22;51065;48.884;12.598;2024-01-10T09:15:25;-1.10;64.70
64654;DHT22;51065;48.884;12.598;2024-01-10T09:17:50;-1.40;1.00
64654;DHT22;51065;48.884;12.598;2024-01-10T09:20:17;-1.60;1.00
64654;DHT22;51065;48.884;12.598;2024-01-10T09:22:43;-1.40;41.60
64654;DHT22;51065;48.884;12.598;2024-01-10T09:25:09;-1.70;1.00
64654;DHT22;51065;48.884;12.598;2024-01-10T09:27:39;-1.20;1.00
64654;DHT22;51065;48.884;12.598;2024-01-10T09:30:06;-1.70;17.50
64654;DHT22;51065;48.884;12.598;2024-01-10T09:32:35;-2.20;99.90
64654;DHT22;51065;48.884;12.598;2024-01-10T09:35:01;-1.80;99.90
64654;DHT22;51065;48.884;12.598;2024-01-10T09:37:26;-1.60;99.90
64654;DHT22;51065;48.884;12.598;2024-01-10T09:39:52;-1.60;99.90
64654;DHT22;51065;48.884;12.598;2024-01-10T09:42:18;-1.40;94.30
64654;DHT22;51065;48.884;12.598;2024-01-10T09:44:45;-1.20;20.20
64654;DHT22;51065;48.884;12.598;2024-01-10T09:47:13;-1.40;1.00
64654;DHT22;51065;48.884;12.598;2024-01-10T09:49:40;-1.00;14.00
64654;DHT22;51065;48.884;12.598;2024-01-10T09:52:09;-1.00;1.00
64654;DHT22;51065;48.884;12.598;2024-01-10T09:54:38;-1.50;1.00
64654;DHT22;51065;48.884;12.598;2024-01-10T09:57:05;-1.00;1.00
64654;DHT22;51065;48.884;12.598;2024-01-10T09:59:31;-1.70;96.40
64654;DHT22;51065;48.884;12.598;2024-01-10T10:01:57;-2.00;99.90
64654;DHT22;51065;48.884;12.598;2024-01-10T10:04:26;-2.30;99.90
64654;DHT22;51065;48.884;12.598;2024-01-10T10:06:59;-2.60;1.00
64654;DHT22;51065;48.884;12.598;2024-01-10T10:09:26;-2.80;1.00
64654;DHT22;51065;48.884;12.598;2024-01-10T10:11:54;-2.90;99.90
64654;DHT22;51065;48.884;12.598;2024-01-10T10:14:20;-2.80;99.90
64654;DHT22;51065;48.884;12.598;2024-01-10T10:16:45;-2.70;99.90
64654;DHT22;51065;48.884;12.598;2024-01-10T10:19:11;-2.60;99.90
64654;DHT22;51065;48.884;12.598;2024-01-10T10:21:38;-2.60;99.90
64654;DHT22;51065;48.884;12.598;2024-01-10T10:24:04;-2.50;99.90
64654;DHT22;51065;48.884;12.598;2024-01-10T10:26:33;-2.70;99.90
64654;DHT22;51065;48.884;12.598;2024-01-10T10:28:59;-2.80;99.90
64654;DHT22;51065;48.884;12.598;2024-01-10T10:31:25;-2.70;99.90
64654;DHT22;51065;48.884;12.598;2024-01-10T10:33:51;-2.80;99.90
64654;DHT22;51065;48.884;12.598;2024-01-10T10:36:17;-2.80;99.90
64654;DHT22;51065;48.884;12.598;2024-01-10T10:38:43;-2.70;99.90
64654;DHT22;51065;48.884;12.598;2024-01-10T10:41:09;-2.50;99.90
64654;DHT22;51065;48.884;12.598;2024-01-10T10:43:36;-2.40;99.90
64654;DHT22;51065;48.884;12.598;2024-01-10T10:46:04;-2.40;99.90
64654;DHT22;51065;48.884;12.598;2024-01-10T10:48:33;-2.50;99.90
64654;DHT22;51065;48.884;12.598;2024-01-10T10:51:05;-2.60;99.90
64654;DHT22;51065;48.884;12.598;2024-01-10T10:53:35;-2.60;1.00
64654;DHT22;51065;48.884;12.598;2024-01-10T10:56:03;-2.60;99.90
64654;DHT22;51065;48.884;12.598;2024-01-10T10:58:41;-2.60;99.90
64654;DHT22;51065;48.884;12.598;2024-01-10T11:01:08;-2.50;99.90
64654;DHT22;51065;48.884;12.598;2024-01-10T11:03:36;-2.50;99.90
64654;DHT22;51065;48.884;12.598;2024-01-10T11:06:12;-2.50;99.90
64654;DHT22;51065;48.884;12.598;2024-01-10T11:09:00;-2.50;99.90
64654;DHT22;51065;48.884;12.598;2024-01-10T11:11:53;-2.50;99.90
64654;DHT22;51065;48.884;12.598;2024-01-10T11:17:26;-2.50;99.90
64654;DHT22;51065;48.884;12.598;2024-01-10T11:22:59;-2.30;99.90
64654;DHT22;51065;48.884;12.598;2024-01-10T11:25:29;-2.30;99.90
64654;DHT22;51065;48.884;12.598;2024-01-10T11:27:56;-2.30;99.90
64654;DHT22;51065;48.884;12.598;2024-01-10T11:30:35;-2.20;99.90
64654;DHT22;51065;48.884;12.598;2024-01-10T11:33:02;-2.10;99.90
64654;DHT22;51065;48.884;12.598;2024-01-10T11:35:28;-2.00;99.90
64654;DHT22;51065;48.884;12.598;2024-01-10T11:37:59;-1.90;99.90
64654;DHT22;51065;48.884;12.598;2024-01-10T11:40:47;-1.90;99.90
64654;DHT22;51065;48.884;12.598;2024-01-10T11:43:15;-1.90;99.90
64654;DHT22;51065;48.884;12.598;2024-01-10T11:45:52;-1.90;99.90
64654;DHT22;51065;48.884;12.598;2024-01-10T11:48:28;-1.80;99.90
64654;DHT22;51065;48.884;12.598;2024-01-10T11:50:54;-1.70;99.90
64654;DHT22;51065;48.884;12.598;2024-01-10T11:53:44;-1.20;1.00
64654;DHT22;51065;48.884;12.598;2024-01-10T11:56:13;0.00;99.90
64654;DHT22;51065;48.884;12.598;2024-01-10T11:59:02;1.20;1.00
64654;DHT22;51065;48.884;12.598;2024-01-10T12:01:31;2.10;99.90
64654;DHT22;51065;48.884;12.598;2024-01-10T12:03:58;1.10;99.90
64654;DHT22;51065;48.884;12.598;2024-01-10T12:06:24;0.50;99.90
64654;DHT22;51065;48.884;12.598;2024-01-10T12:08:50;0.00;1.00
64654;DHT22;51065;48.884;12.598;2024-01-10T12:11:17;-0.20;76.30
64654;DHT22;51065;48.884;12.598;2024-01-10T12:13:43;0.70;81.30
64654;DHT22;51065;48.884;12.598;2024-01-10T12:16:10;1.20;1.00
64654;DHT22;51065;48.884;12.598;2024-01-10T12:18:37;2.30;99.90
64654;DHT22;51065;48.884;12.598;2024-01-10T12:21:02;2.40;99.90
64654;DHT22;51065;48.884;12.598;2024-01-10T12:23:28;2.50;99.90
64654;DHT22;51065;48.884;12.598;2024-01-10T12:26:03;1.50;99.90
64654;DHT22;51065;48.884;12.598;2024-01-10T12:28:34;2.00;99.90
64654;DHT22;51065;48.884;12.598;2024-01-10T12:30:59;2.70;99.90
64654;DHT22;51065;48.884;12.598;2024-01-10T12:33:25;3.20;1.00
64654;DHT22;51065;48.884;12.598;2024-01-10T12:36:20;4.10;1.00
64654;DHT22;51065;48.884;12.598;2024-01-10T12:38:46;4.40;99.90
64654;DHT22;51065;48.884;12.598;2024-01-10T12:41:14;5.20;99.90
64654;DHT22;51065;48.884;12.598;2024-01-10T12:43:40;5.80;99.90
64654;DHT22;51065;48.884;12.598;2024-01-10T12:46:10;6.10;99.90
64654;DHT22;51065;48.884;12.598;2024-01-10T12:48:39;6.40;99.90
64654;DHT22;51065;48.884;12.598;2024-01-10T12:51:15;6.40;87.00
64654;DHT22;51065;48.884;12.598;2024-01-10T12:53:43;3.70;99.90
64654;DHT22;51065;48.884;12.598;2024-01-10T12:56:10;4.40;99.90
64654;DHT22;51065;48.884;12.598;2024-01-10T12:58:40;4.70;99.90
64654;DHT22;51065;48.884;12.598;2024-01-10T13:01:08;4.90;99.90
64654;DHT22;51065;48.884;12.598;2024-01-10T13:03:34;5.30;99.90
64654;DHT22;51065;48.884;12.598;2024-01-10T13:05:59;5.70;99.90
64654;DHT22;51065;48.884;12.598;2024-01-10T13:08:25;4.50;99.90
64654;DHT22;51065;48.884;12.598;2024-01-10T13:10:54;4.10;99.90
64654;DHT22;51065;48.884;12.598;2024-01-10T13:13:20;4.50;99.90
64654;DHT22;51065;48.884;12.598;2024-01-10T13:15:48;4.50;99.90
64654;DHT22;51065;48.884;12.598;2024-01-10T13:18:13;4.40;99.90
64654;DHT22;51065;48.884;12.598;2024-01-10T13:20:41;3.30;99.90
64654;DHT22;51065;48.884;12.598;2024-01-10T13:23:09;1.90;1.00
64654;DHT22;51065;48.884;12.598;2024-01-10T13:25:35;0.90;99.90
64654;DHT22;51065;48.884;12.598;2024-01-10T13:28:03;0.50;1.00
64654;DHT22;51065;48.884;12.598;2024-01-10T13:30:29;0.10;1.00
64654;DHT22;51065;48.884;12.598;2024-01-10T13:32:55;-0.20;1.00
64654;DHT22;51065;48.884;12.598;2024-01-10T13:35:20;-0.30;4.90
64654;DHT22;51065;48.884;12.598;2024-01-10T13:37:47;-0.50;90.00
64654;DHT22;51065;48.884;12.598;2024-01-10T13:40:13;-0.60;99.90
64654;DHT22;51065;48.884;12.598;2024-01-10T13:42:39;-0.70;99.90
64654;DHT22;51065;48.884;12.598;2024-01-10T13:45:09;-0.80;99.90
64654;DHT22;51065;48.884;12.598;2024-01-10T13:47:37;-0.90;99.90
64654;DHT22;51065;48.884;12.598;2024-01-10T13:50:08;-0.90;99.90
64654;DHT22;51065;48.884;12.598;2024-01-10T13:52:35;-0.90;99.90
64654;DHT22;51065;48.884;12.598;2024-01-10T13:55:01;-1.00;99.90
64654;DHT22;51065;48.884;12.598;2024-01-10T13:57:30;-1.00;99.90
64654;DHT22;51065;48.884;12.598;2024-01-10T13:59:55;-1.00;99.90
64654;DHT22;51065;48.884;12.598;2024-01-10T14:02:22;-1.00;99.90
64654;DHT22;51065;48.884;12.598;2024-01-10T14:04:48;-1.00;99.90
64654;DHT22;51065;48.884;12.598;2024-01-10T14:07:13;-1.00;99.90
64654;DHT22;51065;48.884;12.598;2024-01-10T14:09:39;-1.00;99.90
64654;DHT22;51065;48.884;12.598;2024-01-10T14:12:05;-0.90;99.90
64654;DHT22;51065;48.884;12.598;2024-01-10T14:14:31;-0.90;99.90
64654;DHT22;51065;48.884;12.598;2024-01-10T14:16:57;-1.10;99.90
64654;DHT22;51065;48.884;12.598;2024-01-10T14:19:23;-1.20;99.90
64654;DHT22;51065;48.884;12.598;2024-01-10T14:21:48;-1.20;99.90
64654;DHT22;51065;48.884;12.598;2024-01-10T14:24:14;-1.20;99.90
64654;DHT22;51065;48.884;12.598;2024-01-10T14:26:39;-1.30;99.90
64654;DHT22;51065;48.884;12.598;2024-01-10T14:29:05;-1.30;99.90
64654;DHT22;51065;48.884;12.598;2024-01-10T14:31:32;-1.30;99.90
64654;DHT22;51065;48.884;12.598;2024-01-10T14:33:58;-1.30;99.90
64654;DHT22;51065;48.884;12.598;2024-01-10T14:36:23;-1.30;99.90
64654;DHT22;51065;48.884;12.598;2024-01-10T14:38:49;-1.20;99.90
64654;DHT22;51065;48.884;12.598;2024-01-10T14:41:15;-1.20;99.90
64654;DHT22;51065;48.884;12.598;2024-01-10T14:43:41;-1.30;99.90
64654;DHT22;51065;48.884;12.598;2024-01-10T14:46:07;-1.30;99.90
64654;DHT22;51065;48.884;12.598;2024-01-10T14:48:33;-1.40;1.00
64654;DHT22;51065;48.884;12.598;2024-01-10T14:50:59;-1.40;1.00
64654;DHT22;51065;48.884;12.598;2024-01-10T14:53:27;-1.50;1.00
64654;DHT22;51065;48.884;12.598;2024-01-10T14:55:53;-1.60;1.00
64654;DHT22;51065;48.884;12.598;2024-01-10T14:58:19;-1.70;1.00
64654;DHT22;51065;48.884;12.598;2024-01-10T15:00:45;-1.60;1.00
64654;DHT22;51065;48.884;12.598;2024-01-10T15:03:11;-1.70;1.00
64654;DHT22;51065;48.884;12.598;2024-01-10T15:05:38;-1.70;1.00
64654;DHT22;51065;48.884;12.598;2024-01-10T15:08:04;-1.90;1.00
64654;DHT22;51065;48.884;12.598;2024-01-10T15:10:37;-2.00;99.90
64654;DHT22;51065;48.884;12.598;2024-01-10T15:13:10;-2.00;99.90
64654;DHT22;51065;48.884;12.598;2024-01-10T15:15:39;-2.10;99.90
64654;DHT22;51065;48.884;12.598;2024-01-10T15:18:05;-2.00;99.90
64654;DHT22;51065;48.884;12.598;2024-01-10T15:20:31;-2.10;99.90
64654;DHT22;51065;48.884;12.598;2024-01-10T15:22:57;-2.00;99.90
64654;DHT22;51065;48.884;12.598;2024-01-10T15:25:25;-2.10;99.90